LEMH/MAH METAR and TAF weather

Enter ICAO airport designator
Station Type Date Time Source
LEMH METAR 2020/09/21 08:30 UTC NOAA

LEMH 210830Z 22003KT 180V310 9999 FEW020 25/15 Q1017


Station Type Date Time Source
LEMH Decoded METAR 2020/09/21 08:30 UTC NOAA

Menorca / Mahon, Spain (LEMH) 39-52N 004-14E 82M
Sep 21, 2020 - 04:30 AM EDT / 2020.09.21 0830 UTC
Wind: from the SW (220 degrees) at 3 MPH (3 KT) (direction variable):0
Visibility: greater than 7 mile(s):0
Sky conditions: mostly clear
Temperature: 77 F (25 C)
Dew Point: 59 F (15 C)
Relative Humidity: 53%
Pressure (altimeter): 30.03 in. Hg (1017 hPa)
ob: LEMH 210830Z 22003KT 180V310 9999 FEW020 25/15 Q1017
cycle: 8

Station Type Date Time Source
LEMH TAF 2020/09/21 09:27 UTC NOAA

TAF LEMH 210800Z 2109/2209 36005KT 9999 FEW020 TX28/2112Z TN19/2205Z
BECMG 2109/2110 21010KT PROB40
TEMPO 2109/2120 33015G25KT 3000 TSRA BKN020 SCT025CB
TEMPO 2118/2122 VRB04KT
BECMG 2121/2123 27010KT

Example: see airport list